WSSS/SIN METAR and TAF weather

Enter ICAO airport designator
Station Type Date Time Source
WSSS METAR 2021/09/28 04:00 UTC NOAA

WSSS 280400Z 33005KT 270V060 9999 FEW018 FEW020TCU SCT270 31/24 Q1010 NOSIG


Station Type Date Time Source
WSSS Decoded METAR 2021/09/28 04:00 UTC NOAA

Singapore / Changi Airport, Singapore (WSSS) 01-22N 103-59E 16M
Sep 28, 2021 - 12:00 AM EDT / 2021.09.28 0400 UTC
Wind: from the NNW (330 degrees) at 6 MPH (5 KT) (direction variable):0
Visibility: greater than 7 mile(s):0
Sky conditions: partly cloudy
Weather: Towering cumulus clouds observed
Temperature: 87 F (31 C)
Heat index: 95.7 F (35.4 C):1
Dew Point: 75 F (24 C)
Relative Humidity: 66%
Pressure (altimeter): 29.83 in. Hg (1010 hPa)
ob: WSSS 280400Z 33005KT 270V060 9999 FEW018 FEW020TCU SCT270 31/24 Q1010 NOSIG
cycle: 4

Station Type Date Time Source
WSSS TAF 2021/09/28 03:31 UTC NOAA

TAF
AMD WSSS 280320Z 2803/2906 VRB05KT 9999 FEW015 SCT020

Example: see airport list